createdAt,value
2019-02-25T00:00:44.443Z,59.20
2019-02-25T00:01:18.880Z,61.63
2019-02-25T00:01:51.592Z,48.17
2019-02-25T00:02:27.748Z,42.70
2019-02-25T00:02:59.050Z,42.47
2019-02-25T00:03:30.446Z,37.97
2019-02-25T00:04:01.767Z,36.23
2019-02-25T00:04:33.359Z,36.93
2019-02-25T00:05:05.995Z,38.40
2019-02-25T00:05:38.330Z,33.47
2019-02-25T00:06:09.598Z,32.50
2019-02-25T00:06:41.252Z,33.07
2019-02-25T00:07:12.606Z,35.50
2019-02-25T00:07:43.908Z,31.63
2019-02-25T00:08:15.165Z,33.10
2019-02-25T00:08:46.568Z,30.53
2019-02-25T00:09:17.949Z,32.57
2019-02-25T00:09:49.249Z,31.53
2019-02-25T00:10:20.459Z,30.63
2019-02-25T00:10:51.995Z,39.83
2019-02-25T00:11:23.238Z,43.47
2019-02-25T00:11:54.665Z,66.93
2019-02-25T00:12:26.024Z,69.27
2019-02-25T00:12:57.439Z,61.40
2019-02-25T00:13:28.862Z,56.43
2019-02-25T00:14:00.220Z,36.73
2019-02-25T00:14:31.583Z,81.87
2019-02-25T00:15:06.315Z,60.47
2019-02-25T00:15:37.792Z,49.23
2019-02-25T00:16:09.555Z,50.47
2019-02-25T00:16:41.137Z,49.50
2019-02-25T00:17:12.479Z,91.20
2019-02-25T00:17:43.799Z,87.00
2019-02-25T00:18:15.187Z,83.27
2019-02-25T00:18:46.568Z,86.10
2019-02-25T00:19:18.140Z,105.47
2019-02-25T00:19:49.685Z,112.63
2019-02-25T00:20:21.267Z,113.20
2019-02-25T00:20:52.741Z,118.97
2019-02-25T00:21:24.349Z,127.00
2019-02-25T00:21:55.798Z,122.30
2019-02-25T00:22:27.150Z,119.63
2019-02-25T00:22:58.590Z,121.13
2019-02-25T00:23:30.077Z,117.00
2019-02-25T00:24:01.420Z,112.07
2019-02-25T00:24:33.008Z,112.60
2019-02-25T00:25:11.160Z,108.67
2019-02-25T00:25:43.522Z,68.83
2019-02-25T00:26:15.091Z,95.73
2019-02-25T00:26:46.376Z,90.27
2019-02-25T00:27:17.866Z,101.93
2019-02-25T00:27:49.215Z,98.47
2019-02-25T00:28:20.461Z,97.37
2019-02-25T00:28:52.862Z,97.63
2019-02-25T00:29:24.292Z,96.90
2019-02-25T00:29:55.714Z,99.57
2019-02-25T00:30:27.028Z,98.73
2019-02-25T00:30:58.465Z,97.93
2019-02-25T00:31:29.756Z,82.13
2019-02-25T00:32:01.154Z,83.13
2019-02-25T00:32:32.610Z,88.10
2019-02-25T00:33:04.216Z,88.93
2019-02-25T00:33:36.536Z,97.50
2019-02-25T00:34:07.910Z,99.80
2019-02-25T00:34:39.244Z,101.67
2019-02-25T00:35:11.734Z,103.73
2019-02-25T00:35:43.114Z,99.93
2019-02-25T00:36:14.453Z,91.37
2019-02-25T00:36:45.734Z,89.80
2019-02-25T00:37:16.996Z,91.00
2019-02-25T00:37:48.439Z,61.53
2019-02-25T00:38:20.127Z,85.17
2019-02-25T00:38:51.430Z,84.77
2019-02-25T00:39:23.895Z,78.23
2019-02-25T00:39:55.278Z,79.77
2019-02-25T00:40:27.728Z,76.50
2019-02-25T00:40:59.247Z,76.87
2019-02-25T00:41:30.517Z,70.23
2019-02-25T00:42:01.839Z,66.00
2019-02-25T00:42:33.187Z,62.47
2019-02-25T00:43:04.472Z,57.03
2019-02-25T00:43:35.761Z,53.23
2019-02-25T00:44:07.043Z,53.87
2019-02-25T00:44:38.291Z,50.30
2019-02-25T00:45:12.437Z,44.83
2019-02-25T00:45:43.805Z,44.03
2019-02-25T00:46:15.411Z,38.50
2019-02-25T00:46:47.639Z,38.83
2019-02-25T00:47:19.149Z,36.10
2019-02-25T00:47:50.607Z,35.80
2019-02-25T00:48:21.947Z,31.73
2019-02-25T00:48:53.284Z,29.47
2019-02-25T00:49:24.996Z,29.07
2019-02-25T00:49:56.334Z,27.07
2019-02-25T00:50:27.814Z,25.80
2019-02-25T00:50:59.123Z,26.90
2019-02-25T00:51:31.621Z,25.83
2019-02-25T00:52:03.076Z,27.10
2019-02-25T00:52:34.616Z,27.20
2019-02-25T00:53:05.915Z,26.83
2019-02-25T00:53:37.393Z,27.10
2019-02-25T00:54:08.800Z,26.07
2019-02-25T00:54:40.163Z,27.63
2019-02-25T00:55:12.218Z,27.20
2019-02-25T00:55:43.584Z,44.07
2019-02-25T00:56:14.970Z,45.50
2019-02-25T00:56:46.308Z,46.23
2019-02-25T00:57:17.967Z,55.10
2019-02-25T00:57:49.378Z,55.70
2019-02-25T00:58:20.814Z,48.23
2019-02-25T00:58:52.219Z,56.30
2019-02-25T00:59:23.532Z,60.07
2019-02-25T00:59:56.010Z,65.70
2019-02-25T01:00:27.414Z,66.40
2019-02-25T01:00:58.801Z,62.43
2019-02-25T01:01:30.138Z,66.97
2019-02-25T01:02:01.418Z,65.33
2019-02-25T01:02:32.721Z,63.03
2019-02-25T01:03:04.337Z,69.03
2019-02-25T01:03:35.739Z,64.10
2019-02-25T01:04:07.135Z,66.47
2019-02-25T01:04:38.555Z,66.73
2019-02-25T01:05:09.929Z,68.97
2019-02-25T01:05:41.239Z,58.47
2019-02-25T01:06:12.504Z,65.53
2019-02-25T01:06:43.903Z,68.53
2019-02-25T01:07:15.454Z,64.53
2019-02-25T01:07:46.978Z,60.80
2019-02-25T01:08:18.405Z,59.30
2019-02-25T01:08:49.684Z,59.57
2019-02-25T01:09:21.145Z,58.20
2019-02-25T01:09:52.431Z,66.17
2019-02-25T01:10:23.805Z,61.93
2019-02-25T01:10:55.150Z,61.97
2019-02-25T01:11:26.725Z,63.23
2019-02-25T01:11:58.061Z,59.60
2019-02-25T01:12:29.390Z,62.90
2019-02-25T01:13:00.688Z,63.63
2019-02-25T01:13:32.184Z,60.83
2019-02-25T01:14:03.543Z,59.33
2019-02-25T01:14:34.878Z,63.63
2019-02-25T01:15:09.812Z,63.07
2019-02-25T01:15:41.258Z,61.10
2019-02-25T01:16:12.779Z,59.97
2019-02-25T01:16:44.350Z,65.53
2019-02-25T01:17:15.673Z,64.93
2019-02-25T01:17:47.014Z,66.23
2019-02-25T01:18:18.325Z,65.53
2019-02-25T01:18:49.691Z,64.53
2019-02-25T01:19:21.086Z,62.40
2019-02-25T01:19:52.421Z,60.60
2019-02-25T01:20:24.778Z,63.37
2019-02-25T01:20:56.184Z,62.23
2019-02-25T01:21:27.482Z,62.63
2019-02-25T01:21:58.843Z,64.40
2019-02-25T01:22:30.184Z,64.73
2019-02-25T01:23:01.539Z,60.37
2019-02-25T01:23:32.918Z,58.00
2019-02-25T01:24:04.445Z,60.67
2019-02-25T01:24:35.838Z,58.20
2019-02-25T01:25:14.943Z,57.40
2019-02-25T01:25:46.369Z,54.80
2019-02-25T01:26:18.134Z,58.73
2019-02-25T01:26:49.456Z,55.63
2019-02-25T01:27:20.973Z,56.17
2019-02-25T01:27:52.335Z,54.17
2019-02-25T01:28:23.761Z,54.67
2019-02-25T01:28:55.087Z,52.27
2019-02-25T01:29:26.617Z,54.47
2019-02-25T01:29:57.900Z,53.00
2019-02-25T01:30:29.196Z,51.03
2019-02-25T01:31:00.522Z,50.53
2019-02-25T01:31:32.035Z,50.60
2019-02-25T01:32:03.419Z,51.27
2019-02-25T01:32:34.732Z,50.50
2019-02-25T01:33:06.090Z,51.60
2019-02-25T01:33:37.476Z,52.03
2019-02-25T01:34:08.830Z,53.80
2019-02-25T01:34:40.378Z,53.43
2019-02-25T01:35:12.213Z,53.80
2019-02-25T01:35:43.686Z,52.23
2019-02-25T01:36:14.970Z,48.20
2019-02-25T01:36:46.406Z,49.20
2019-02-25T01:37:17.731Z,51.20
2019-02-25T01:37:49.309Z,49.90
2019-02-25T01:38:20.638Z,47.90
2019-02-25T01:38:51.943Z,54.63
2019-02-25T01:39:23.176Z,57.57
2019-02-25T01:39:54.602Z,58.47
2019-02-25T01:40:26.034Z,59.70
2019-02-25T01:40:57.426Z,56.43
2019-02-25T01:41:28.863Z,54.87
2019-02-25T01:42:00.198Z,40.13
2019-02-25T01:42:31.583Z,42.13
2019-02-25T01:43:02.895Z,39.37
2019-02-25T01:43:34.149Z,40.73
2019-02-25T01:44:05.523Z,36.77
2019-02-25T01:44:37.832Z,45.90
2019-02-25T01:45:16.485Z,43.60
2019-02-25T01:45:48.413Z,43.13
2019-02-25T01:46:19.871Z,41.37
2019-02-25T01:46:51.315Z,34.77
2019-02-25T01:47:22.700Z,34.27
2019-02-25T01:47:54.100Z,35.77
2019-02-25T01:48:25.452Z,33.23
2019-02-25T01:48:56.951Z,34.13
2019-02-25T01:49:28.246Z,35.27
2019-02-25T01:49:59.567Z,34.13
2019-02-25T01:50:31.119Z,33.93
2019-02-25T01:51:02.474Z,32.30
2019-02-25T01:51:33.864Z,35.63
2019-02-25T01:52:05.331Z,33.47
2019-02-25T01:52:36.996Z,31.93
2019-02-25T01:53:08.258Z,32.10
2019-02-25T01:53:39.710Z,37.70
2019-02-25T01:54:11.247Z,29.70
2019-02-25T01:54:42.670Z,38.97
2019-02-25T01:55:14.364Z,34.67
2019-02-25T01:55:45.816Z,36.63
2019-02-25T01:56:17.435Z,39.43
2019-02-25T01:56:48.955Z,39.57
2019-02-25T01:57:20.373Z,41.27
2019-02-25T01:57:51.664Z,41.40
2019-02-25T01:58:23.073Z,39.67
2019-02-25T01:58:54.427Z,39.53
2019-02-25T01:59:25.661Z,40.47
2019-02-25T01:59:57.021Z,39.33
2019-02-25T02:00:28.477Z,40.93
2019-02-25T02:01:00.016Z,40.37
2019-02-25T02:01:31.419Z,39.20
2019-02-25T02:02:03.861Z,38.57
2019-02-25T02:02:35.384Z,36.57
2019-02-25T02:03:06.750Z,37.73
2019-02-25T02:03:38.058Z,37.50
2019-02-25T02:04:09.618Z,36.23
2019-02-25T02:04:41.124Z,37.53
2019-02-25T02:05:12.692Z,43.23
2019-02-25T02:05:44.007Z,42.80
2019-02-25T02:06:15.412Z,48.73
2019-02-25T02:06:46.749Z,50.13
2019-02-25T02:07:18.312Z,48.00
2019-02-25T02:07:49.606Z,49.50
2019-02-25T02:08:21.020Z,48.67
2019-02-25T02:08:52.290Z,49.40
2019-02-25T02:09:23.891Z,45.80
2019-02-25T02:09:55.553Z,41.63
2019-02-25T02:10:27.051Z,41.07
2019-02-25T02:10:58.434Z,41.90
2019-02-25T02:11:29.889Z,39.73
2019-02-25T02:12:01.180Z,40.40
2019-02-25T02:12:32.703Z,41.50
2019-02-25T02:13:13.781Z,38.90
2019-02-25T02:13:37.329Z,39.37
2019-02-25T02:14:08.709Z,36.90
2019-02-25T02:14:40.111Z,37.77
2019-02-25T02:15:14.843Z,34.37
2019-02-25T02:15:46.289Z,37.17
2019-02-25T02:16:17.671Z,36.63
2019-02-25T02:16:49.201Z,36.33
2019-02-25T02:17:20.713Z,38.80
2019-02-25T02:17:52.058Z,37.20
2019-02-25T02:18:23.405Z,39.07
2019-02-25T02:18:54.767Z,38.43
2019-02-25T02:19:26.195Z,36.63
2019-02-25T02:19:57.501Z,35.73
2019-02-25T02:20:29.030Z,35.57
2019-02-25T02:21:00.330Z,34.47
2019-02-25T02:21:31.846Z,34.00
2019-02-25T02:22:03.231Z,35.67
2019-02-25T02:22:34.682Z,32.57
2019-02-25T02:23:07.176Z,32.90
2019-02-25T02:23:38.714Z,29.57
2019-02-25T02:24:10.025Z,30.93
2019-02-25T02:24:41.388Z,32.60
2019-02-25T02:25:13.078Z,26.43
2019-02-25T02:25:44.622Z,23.67
2019-02-25T02:26:16.184Z,22.37
2019-02-25T02:26:47.662Z,21.90
2019-02-25T02:27:19.013Z,21.63
2019-02-25T02:27:50.321Z,23.00
2019-02-25T02:28:21.716Z,20.97
2019-02-25T02:28:53.097Z,20.67
2019-02-25T02:29:24.562Z,21.07
2019-02-25T02:29:55.980Z,21.83
2019-02-25T02:30:27.404Z,21.70
2019-02-25T02:30:58.852Z,21.27
2019-02-25T02:31:30.299Z,20.23
2019-02-25T02:32:01.694Z,21.90
2019-02-25T02:32:33.218Z,21.50
2019-02-25T02:33:04.617Z,22.97
2019-02-25T02:33:36.028Z,22.20
2019-02-25T02:34:07.522Z,23.00
2019-02-25T02:34:39.002Z,23.80
2019-02-25T02:35:10.289Z,23.03
2019-02-25T02:35:41.632Z,24.60
2019-02-25T02:36:13.007Z,22.90
2019-02-25T02:36:44.436Z,22.23
2019-02-25T02:37:15.859Z,22.07
2019-02-25T02:37:47.491Z,22.57
2019-02-25T02:38:18.910Z,21.73
2019-02-25T02:38:50.195Z,23.33
2019-02-25T02:39:21.487Z,23.03
2019-02-25T02:39:52.808Z,23.40
2019-02-25T02:40:24.280Z,23.17
2019-02-25T02:40:55.642Z,23.63
2019-02-25T02:41:27.097Z,22.33
2019-02-25T02:42:18.838Z,23.00
2019-02-25T02:42:59.109Z,22.40
2019-02-25T02:43:30.704Z,20.37
2019-02-25T02:44:02.365Z,21.50
2019-02-25T02:44:33.784Z,21.83
2019-02-25T02:45:20.082Z,22.50
2019-02-25T02:46:06.307Z,19.57
2019-02-25T02:47:01.205Z,22.60
2019-02-25T02:47:43.675Z,23.10
2019-02-25T02:48:27.027Z,21.53
2019-02-25T02:49:01.417Z,21.63
2019-02-25T02:49:32.834Z,22.53
2019-02-25T02:50:12.182Z,22.47
2019-02-25T02:50:43.615Z,21.07
2019-02-25T02:51:15.318Z,22.43
2019-02-25T02:51:46.666Z,23.80
2019-02-25T02:52:18.249Z,22.50
2019-02-25T02:52:49.670Z,22.70
2019-02-25T02:53:21.010Z,22.57
2019-02-25T02:53:52.336Z,23.10
2019-02-25T02:54:23.942Z,21.80
2019-02-25T02:54:55.240Z,21.10
2019-02-25T02:55:26.683Z,21.67
2019-02-25T02:55:57.981Z,21.80
2019-02-25T02:56:29.376Z,20.97
2019-02-25T02:57:00.772Z,21.20
2019-02-25T02:57:32.028Z,22.80
2019-02-25T02:58:03.484Z,21.87
2019-02-25T02:58:34.992Z,21.17
2019-02-25T02:59:06.228Z,21.77
2019-02-25T02:59:37.656Z,22.50
2019-02-25T03:00:17.021Z,22.70
2019-02-25T03:00:48.366Z,22.53
2019-02-25T03:01:19.662Z,22.63
2019-02-25T03:01:51.016Z,22.47
2019-02-25T03:02:22.395Z,22.87
2019-02-25T03:02:54.040Z,22.73
2019-02-25T03:03:25.385Z,23.13
2019-02-25T03:03:56.850Z,23.87
2019-02-25T03:04:28.166Z,24.43
2019-02-25T03:04:59.692Z,23.23
2019-02-25T03:05:31.169Z,24.80
2019-02-25T03:06:02.511Z,24.27
2019-02-25T03:06:33.842Z,25.63
2019-02-25T03:07:05.263Z,25.90
2019-02-25T03:07:36.769Z,24.07
2019-02-25T03:08:08.234Z,23.57
2019-02-25T03:08:39.545Z,24.23
2019-02-25T03:09:11.033Z,23.77
2019-02-25T03:09:42.368Z,23.20
2019-02-25T03:10:16.285Z,21.67
2019-02-25T03:10:47.703Z,21.90
2019-02-25T03:11:19.077Z,21.33
2019-02-25T03:11:50.325Z,21.07
2019-02-25T03:12:21.733Z,22.30
2019-02-25T03:12:53.083Z,21.90
2019-02-25T03:13:24.481Z,22.13
2019-02-25T03:13:55.893Z,22.80
2019-02-25T03:14:27.292Z,22.90
2019-02-25T03:14:58.649Z,22.97
2019-02-25T03:15:30.030Z,23.70
2019-02-25T03:16:01.446Z,24.27
2019-02-25T03:16:32.788Z,23.37
2019-02-25T03:17:04.339Z,24.30
2019-02-25T03:17:35.864Z,25.50
2019-02-25T03:18:07.166Z,25.10
2019-02-25T03:18:38.490Z,23.37
2019-02-25T03:19:09.967Z,23.87
2019-02-25T03:19:41.341Z,23.93
2019-02-25T03:20:12.678Z,22.90
2019-02-25T03:20:44.334Z,23.50
2019-02-25T03:21:15.952Z,23.77
2019-02-25T03:21:48.444Z,23.73
2019-02-25T03:22:19.908Z,22.97
2019-02-25T03:22:51.353Z,23.20
2019-02-25T03:23:22.906Z,21.83
2019-02-25T03:23:54.327Z,22.17
2019-02-25T03:24:25.752Z,23.73
2019-02-25T03:24:57.231Z,22.83
2019-02-25T03:25:28.680Z,23.57
2019-02-25T03:26:00.013Z,22.87
2019-02-25T03:26:31.342Z,23.70
2019-02-25T03:27:02.723Z,23.77
2019-02-25T03:27:33.913Z,25.00
2019-02-25T03:28:05.245Z,25.30
2019-02-25T03:28:36.507Z,23.83
2019-02-25T03:29:07.909Z,24.20
2019-02-25T03:29:39.245Z,25.03
2019-02-25T03:30:19.936Z,24.63
2019-02-25T03:30:51.287Z,24.27
2019-02-25T03:31:22.881Z,24.90
2019-02-25T03:31:54.429Z,24.23
2019-02-25T03:32:25.981Z,25.00
2019-02-25T03:32:57.493Z,25.50
2019-02-25T03:33:28.995Z,27.10
2019-02-25T03:34:00.663Z,26.47
2019-02-25T03:34:32.153Z,26.47
2019-02-25T03:35:03.736Z,25.90
2019-02-25T03:35:35.148Z,27.07
2019-02-25T03:36:06.844Z,26.63
2019-02-25T03:36:38.256Z,24.57
2019-02-25T03:37:09.740Z,25.17
2019-02-25T03:37:41.488Z,23.40
2019-02-25T03:38:12.804Z,23.30
2019-02-25T03:38:44.142Z,24.07
2019-02-25T03:39:15.516Z,22.50
2019-02-25T03:39:46.787Z,23.97
2019-02-25T03:40:22.344Z,23.93
2019-02-25T03:40:54.715Z,24.20
2019-02-25T03:41:26.118Z,23.27
2019-02-25T03:41:57.390Z,23.13
2019-02-25T03:42:28.758Z,23.80
2019-02-25T03:43:00.126Z,23.40
2019-02-25T03:43:31.590Z,24.73
2019-02-25T03:44:03.011Z,25.87
2019-02-25T03:44:35.445Z,25.27
2019-02-25T03:45:12.674Z,26.17
2019-02-25T03:45:44.392Z,24.87
2019-02-25T03:46:15.916Z,25.90
2019-02-25T03:46:47.138Z,26.80
2019-02-25T03:47:18.478Z,25.40
2019-02-25T03:47:49.763Z,27.33
2019-02-25T03:48:21.159Z,27.43
2019-02-25T03:48:52.665Z,26.40
2019-02-25T03:49:24.016Z,27.13
2019-02-25T03:49:55.371Z,26.67
2019-02-25T03:50:26.758Z,26.47
2019-02-25T03:50:58.075Z,25.13
2019-02-25T03:51:29.460Z,25.80
2019-02-25T03:52:00.873Z,24.97
2019-02-25T03:52:32.201Z,24.53
2019-02-25T03:53:03.680Z,23.77
2019-02-25T03:53:35.131Z,23.87
2019-02-25T03:54:06.512Z,24.80
2019-02-25T03:54:37.830Z,24.50
2019-02-25T03:55:17.222Z,23.57
2019-02-25T03:55:48.634Z,23.97
2019-02-25T03:56:20.064Z,23.57
2019-02-25T03:56:51.513Z,24.07
2019-02-25T03:57:23.100Z,25.30
2019-02-25T03:57:54.378Z,25.27
2019-02-25T03:58:25.908Z,24.53
2019-02-25T03:58:57.304Z,26.00
2019-02-25T03:59:28.719Z,25.20
2019-02-25T04:00:00.004Z,25.17
2019-02-25T04:00:31.363Z,25.27
2019-02-25T04:01:02.724Z,25.57
2019-02-25T04:01:35.122Z,26.03
2019-02-25T04:02:06.371Z,26.23
2019-02-25T04:02:37.748Z,25.33
2019-02-25T04:03:09.684Z,25.03
2019-02-25T04:03:41.280Z,26.20
2019-02-25T04:04:12.584Z,26.30
2019-02-25T04:04:43.941Z,26.47
2019-02-25T04:05:15.351Z,27.63
2019-02-25T04:05:46.775Z,26.37
2019-02-25T04:06:18.052Z,24.93
2019-02-25T04:06:49.499Z,25.30
2019-02-25T04:07:20.944Z,24.93
2019-02-25T04:07:52.298Z,24.10
2019-02-25T04:08:23.646Z,25.00
2019-02-25T04:08:55.170Z,24.80
2019-02-25T04:09:26.544Z,23.10
2019-02-25T04:09:58.091Z,24.53
2019-02-25T04:10:29.386Z,24.23
2019-02-25T04:11:00.783Z,23.23
2019-02-25T04:11:32.272Z,23.43
2019-02-25T04:12:03.621Z,25.80
2019-02-25T04:12:35.023Z,26.33
2019-02-25T04:13:06.443Z,27.13
2019-02-25T04:13:37.837Z,27.07
2019-02-25T04:14:09.242Z,27.37
2019-02-25T04:14:40.584Z,26.77
2019-02-25T04:15:17.043Z,27.67
2019-02-25T04:15:48.399Z,26.63
2019-02-25T04:16:19.836Z,28.20
2019-02-25T04:16:51.170Z,28.30
2019-02-25T04:17:22.536Z,27.53
2019-02-25T04:17:53.890Z,28.07
2019-02-25T04:18:25.429Z,28.63
2019-02-25T04:18:56.821Z,27.43
2019-02-25T04:19:28.234Z,27.63
2019-02-25T04:19:59.600Z,26.60
2019-02-25T04:20:30.942Z,28.70
2019-02-25T04:21:02.200Z,28.13
2019-02-25T04:21:33.480Z,27.53
2019-02-25T04:22:04.828Z,27.80
2019-02-25T04:22:36.199Z,27.30
2019-02-25T04:23:07.516Z,27.80
2019-02-25T04:23:39.045Z,29.40
2019-02-25T04:24:10.620Z,32.97
2019-02-25T04:24:42.271Z,34.00
2019-02-25T04:25:13.911Z,35.93
2019-02-25T04:25:45.430Z,36.43
2019-02-25T04:26:16.921Z,38.10
2019-02-25T04:26:48.371Z,36.70
2019-02-25T04:27:19.765Z,38.50
2019-02-25T04:27:51.240Z,38.17
2019-02-25T04:28:22.496Z,40.80
2019-02-25T04:28:53.926Z,39.17
2019-02-25T04:29:25.293Z,39.00
2019-02-25T04:29:56.726Z,38.83
2019-02-25T04:30:27.996Z,36.50
2019-02-25T04:30:59.290Z,34.77
2019-02-25T04:31:30.620Z,35.80
2019-02-25T04:32:02.124Z,39.43
2019-02-25T04:32:35.043Z,39.03
2019-02-25T04:33:06.528Z,36.23
2019-02-25T04:33:38.135Z,37.67
2019-02-25T04:34:09.643Z,36.73
2019-02-25T04:34:41.062Z,36.97
2019-02-25T04:35:13.161Z,36.70
2019-02-25T04:35:45.805Z,35.87
2019-02-25T04:36:17.212Z,36.00
2019-02-25T04:36:48.590Z,33.40
2019-02-25T04:37:19.851Z,33.37
2019-02-25T04:37:51.334Z,32.47
2019-02-25T04:38:22.688Z,32.60
2019-02-25T04:38:54.129Z,29.63
2019-02-25T04:39:25.431Z,32.23
2019-02-25T04:39:56.817Z,29.83
2019-02-25T04:40:28.232Z,31.87
2019-02-25T04:40:59.575Z,32.00
2019-02-25T04:41:30.888Z,31.23
2019-02-25T04:42:02.345Z,31.20
2019-02-25T04:42:33.889Z,31.57
2019-02-25T04:43:05.360Z,30.20
2019-02-25T04:43:36.814Z,30.83
2019-02-25T04:44:08.219Z,33.27
2019-02-25T04:44:39.483Z,34.60
2019-02-25T04:45:17.742Z,33.77
2019-02-25T04:45:49.167Z,33.03
2019-02-25T04:46:20.662Z,34.33
2019-02-25T04:46:52.029Z,33.60
2019-02-25T04:47:23.412Z,33.13
2019-02-25T04:47:54.926Z,34.07
2019-02-25T04:48:26.359Z,32.43
2019-02-25T04:48:57.991Z,31.93
2019-02-25T04:49:29.527Z,30.87
2019-02-25T04:50:01.022Z,30.00
2019-02-25T04:50:32.518Z,30.00
2019-02-25T04:51:03.966Z,30.33
2019-02-25T04:51:35.446Z,29.23
2019-02-25T04:52:06.970Z,29.37
2019-02-25T04:52:38.504Z,31.10
2019-02-25T04:53:09.941Z,29.40
2019-02-25T04:53:41.302Z,29.50
2019-02-25T04:54:12.771Z,30.13
2019-02-25T04:54:44.119Z,30.57
2019-02-25T04:55:15.459Z,31.47
2019-02-25T04:55:47.006Z,31.37
2019-02-25T04:56:18.620Z,32.63
2019-02-25T04:56:50.052Z,32.20
2019-02-25T04:57:21.712Z,31.07
2019-02-25T04:57:53.298Z,31.87
2019-02-25T04:58:24.755Z,34.03
2019-02-25T04:58:56.351Z,34.23
2019-02-25T04:59:27.895Z,36.40
2019-02-25T04:59:59.351Z,36.07
2019-02-25T05:00:30.911Z,35.87
2019-02-25T05:01:02.391Z,37.70
2019-02-25T05:01:33.879Z,35.10
2019-02-25T05:02:05.389Z,35.13
2019-02-25T05:02:36.629Z,33.63
2019-02-25T05:03:09.113Z,34.23
2019-02-25T05:03:40.544Z,33.63
2019-02-25T05:04:11.923Z,33.97
2019-02-25T05:04:43.248Z,34.80
2019-02-25T05:05:14.801Z,34.47
2019-02-25T05:05:46.155Z,37.23
2019-02-25T05:06:17.815Z,36.57
2019-02-25T05:06:49.045Z,35.70
2019-02-25T05:07:20.396Z,35.30
2019-02-25T05:07:51.816Z,35.57
2019-02-25T05:08:23.274Z,34.53
2019-02-25T05:08:54.707Z,34.80
2019-02-25T05:09:26.023Z,34.13
2019-02-25T05:09:57.310Z,34.97
2019-02-25T05:10:28.871Z,34.63
2019-02-25T05:11:00.258Z,36.10
2019-02-25T05:11:33.166Z,33.70
2019-02-25T05:12:04.495Z,34.80
2019-02-25T05:12:36.028Z,33.67
2019-02-25T05:13:08.037Z,35.03
2019-02-25T05:13:39.480Z,35.40
2019-02-25T05:14:10.985Z,35.50
2019-02-25T05:14:42.367Z,37.40
2019-02-25T05:15:15.620Z,35.93
2019-02-25T05:15:47.086Z,37.57
2019-02-25T05:16:18.453Z,36.67
2019-02-25T05:16:49.802Z,35.40
2019-02-25T05:17:22.171Z,32.50
2019-02-25T05:17:53.572Z,34.57
2019-02-25T05:18:25.042Z,35.43
2019-02-25T05:18:56.345Z,35.13
2019-02-25T05:19:27.796Z,35.07
2019-02-25T05:19:59.057Z,33.70
2019-02-25T05:20:30.393Z,35.90
2019-02-25T05:21:02.684Z,36.47
2019-02-25T05:21:34.091Z,35.57
2019-02-25T05:22:05.495Z,35.77
2019-02-25T05:22:37.674Z,37.53
2019-02-25T05:23:09.283Z,34.57
2019-02-25T05:23:40.817Z,32.27
2019-02-25T05:24:12.167Z,33.00
2019-02-25T05:24:43.675Z,33.40
2019-02-25T05:25:15.277Z,34.10
2019-02-25T05:25:46.685Z,37.20
2019-02-25T05:26:18.329Z,35.90
2019-02-25T05:26:49.791Z,36.17
2019-02-25T05:27:21.313Z,40.00
2019-02-25T05:27:52.588Z,38.37
2019-02-25T05:28:24.124Z,38.90
2019-02-25T05:28:55.486Z,37.23
2019-02-25T05:29:26.885Z,37.17
2019-02-25T05:29:58.184Z,36.80
2019-02-25T05:30:29.626Z,36.27
2019-02-25T05:31:00.938Z,35.07
2019-02-25T05:31:32.513Z,36.60
2019-02-25T05:32:03.967Z,34.83
2019-02-25T05:32:35.276Z,34.73
2019-02-25T05:33:06.556Z,32.37
2019-02-25T05:33:37.889Z,35.10
2019-02-25T05:34:09.318Z,33.53
2019-02-25T05:34:40.825Z,33.67
2019-02-25T05:35:12.627Z,34.57
2019-02-25T05:35:46.238Z,37.30
2019-02-25T05:36:17.612Z,36.73
2019-02-25T05:36:49.006Z,36.93
2019-02-25T05:37:20.320Z,36.23
2019-02-25T05:37:51.731Z,36.03
2019-02-25T05:38:23.253Z,37.00
2019-02-25T05:38:54.598Z,38.73
2019-02-25T05:39:26.005Z,38.93
2019-02-25T05:39:57.489Z,41.07
2019-02-25T05:40:29.038Z,39.77
2019-02-25T05:41:00.327Z,39.07
2019-02-25T05:41:31.979Z,39.57
2019-02-25T05:42:03.387Z,41.30
2019-02-25T05:42:34.863Z,44.33
2019-02-25T05:43:06.192Z,42.37
2019-02-25T05:43:37.639Z,40.70
2019-02-25T05:44:09.019Z,39.33
2019-02-25T05:44:40.537Z,38.60
2019-02-25T05:45:13.237Z,40.17
2019-02-25T05:45:44.671Z,37.57
2019-02-25T05:46:15.988Z,35.60
2019-02-25T05:46:47.346Z,36.43
2019-02-25T05:47:18.851Z,35.83
2019-02-25T05:47:50.183Z,35.13
2019-02-25T05:48:21.545Z,36.60
2019-02-25T05:48:52.966Z,34.17
2019-02-25T05:49:24.266Z,36.00
2019-02-25T05:49:55.620Z,36.00
2019-02-25T05:50:26.978Z,35.00
2019-02-25T05:50:58.473Z,37.93
2019-02-25T05:51:29.860Z,37.63
2019-02-25T05:52:01.310Z,38.67
2019-02-25T05:52:32.731Z,36.97
2019-02-25T05:53:04.227Z,35.13
2019-02-25T05:53:35.461Z,36.07
2019-02-25T05:54:06.855Z,35.70
2019-02-25T05:54:38.211Z,37.23
2019-02-25T05:55:12.183Z,36.93
2019-02-25T05:55:43.679Z,37.57
2019-02-25T05:56:15.546Z,40.10
2019-02-25T05:56:46.910Z,40.63
2019-02-25T05:57:18.240Z,41.37
2019-02-25T05:57:49.584Z,39.27
2019-02-25T05:58:21.095Z,39.37
2019-02-25T05:58:52.529Z,40.00
2019-02-25T05:59:23.807Z,38.47
2019-02-25T05:59:55.115Z,34.10
2019-02-25T06:00:28.431Z,36.67
2019-02-25T06:01:00.948Z,36.53
2019-02-25T06:01:32.277Z,37.00
2019-02-25T06:02:05.430Z,40.57
2019-02-25T06:02:36.794Z,38.10
2019-02-25T06:03:08.017Z,36.77
2019-02-25T06:03:40.144Z,39.40
2019-02-25T06:04:11.415Z,39.40
2019-02-25T06:04:42.874Z,40.20
2019-02-25T06:05:14.159Z,36.70
2019-02-25T06:05:45.768Z,36.57
2019-02-25T06:06:17.144Z,37.20
2019-02-25T06:06:48.551Z,35.83
2019-02-25T06:07:19.841Z,36.53
2019-02-25T06:07:51.250Z,38.57
2019-02-25T06:08:22.663Z,34.20
2019-02-25T06:08:54.144Z,34.87
2019-02-25T06:09:25.557Z,37.57
2019-02-25T06:09:57.013Z,37.67
2019-02-25T06:10:28.469Z,39.37
2019-02-25T06:10:59.954Z,40.17
2019-02-25T06:11:31.241Z,41.50
2019-02-25T06:12:02.573Z,40.83
2019-02-25T06:12:33.945Z,41.90
2019-02-25T06:13:05.552Z,43.90
2019-02-25T06:13:36.863Z,45.17
2019-02-25T06:14:09.016Z,44.83
2019-02-25T06:14:40.411Z,39.13
2019-02-25T06:15:17.454Z,39.13
2019-02-25T06:15:48.807Z,40.53
2019-02-25T06:16:20.300Z,44.57
2019-02-25T06:16:51.696Z,44.67
2019-02-25T06:17:23.197Z,37.53
2019-02-25T06:17:54.586Z,39.23
2019-02-25T06:18:25.928Z,39.77
2019-02-25T06:18:58.305Z,38.10
2019-02-25T06:19:29.731Z,37.80
2019-02-25T06:20:01.174Z,37.40
2019-02-25T06:20:32.588Z,38.30
2019-02-25T06:21:03.986Z,36.93
2019-02-25T06:21:35.301Z,39.00
2019-02-25T06:22:06.646Z,36.77
2019-02-25T06:22:38.111Z,38.27
2019-02-25T06:23:09.478Z,44.50
2019-02-25T06:23:40.757Z,47.27
2019-02-25T06:24:12.146Z,39.57
2019-02-25T06:24:43.444Z,41.10
2019-02-25T06:25:16.015Z,39.20
2019-02-25T06:25:47.408Z,38.53
2019-02-25T06:26:19.091Z,38.90
2019-02-25T06:26:50.414Z,37.83
2019-02-25T06:27:30.513Z,37.53
2019-02-25T06:27:55.109Z,39.67
2019-02-25T06:28:26.576Z,40.00
2019-02-25T06:28:57.901Z,39.83
2019-02-25T06:29:29.368Z,42.00
2019-02-25T06:30:00.876Z,40.40
2019-02-25T06:30:32.385Z,38.13
2019-02-25T06:31:03.880Z,35.03
2019-02-25T06:31:35.393Z,33.87
2019-02-25T06:32:06.862Z,33.40
2019-02-25T06:32:38.357Z,34.43
2019-02-25T06:33:09.745Z,33.73
2019-02-25T06:33:41.006Z,33.43
2019-02-25T06:34:12.403Z,33.27
2019-02-25T06:34:43.665Z,36.93
2019-02-25T06:35:15.276Z,41.20
2019-02-25T06:35:46.573Z,44.83
2019-02-25T06:36:18.072Z,41.70
2019-02-25T06:36:49.331Z,44.07
2019-02-25T06:37:20.846Z,43.23
2019-02-25T06:37:52.277Z,46.90
2019-02-25T06:38:23.780Z,50.80
2019-02-25T06:38:55.203Z,50.80
2019-02-25T06:39:26.691Z,57.90
2019-02-25T06:39:58.048Z,55.07
2019-02-25T06:40:30.566Z,57.90
2019-02-25T06:41:01.932Z,54.07
2019-02-25T06:41:33.347Z,53.67
2019-02-25T06:42:04.724Z,48.03
2019-02-25T06:42:36.050Z,47.30
2019-02-25T06:43:07.285Z,40.93
2019-02-25T06:43:38.725Z,43.43
2019-02-25T06:44:10.165Z,39.47
2019-02-25T06:44:41.698Z,40.07
2019-02-25T06:45:17.413Z,37.20
2019-02-25T06:45:49.045Z,37.33
2019-02-25T06:46:20.574Z,37.50
2019-02-25T06:46:52.023Z,34.07
2019-02-25T06:47:23.580Z,37.60
2019-02-25T06:47:54.980Z,36.60
2019-02-25T06:48:26.344Z,35.07
2019-02-25T06:48:57.665Z,38.10
2019-02-25T06:49:29.016Z,39.43